sensor_id;sensor_type;location;lat;lon;timestamp;temperature;humidity
10123;DHT22;5101;49.038;8.710;2023-02-12T00:01:11;7.30;96.00
10123;DHT22;5101;49.038;8.710;2023-02-12T00:03:37;7.30;96.20
10123;DHT22;5101;49.038;8.710;2023-02-12T00:06:03;7.30;96.20
10123;DHT22;5101;49.038;8.710;2023-02-12T00:08:29;7.20;96.30
10123;DHT22;5101;49.038;8.710;2023-02-12T00:10:54;7.20;96.50
10123;DHT22;5101;49.038;8.710;2023-02-12T00:13:20;7.20;96.60
10123;DHT22;5101;49.038;8.710;2023-02-12T00:15:45;7.20;96.70
10123;DHT22;5101;49.038;8.710;2023-02-12T00:18:11;7.30;96.90
10123;DHT22;5101;49.038;8.710;2023-02-12T00:20:37;7.30;97.00
10123;DHT22;5101;49.038;8.710;2023-02-12T00:23:04;7.10;97.00
10123;DHT22;5101;49.038;8.710;2023-02-12T00:25:30;7.20;97.00
10123;DHT22;5101;49.038;8.710;2023-02-12T00:27:55;7.20;97.00
10123;DHT22;5101;49.038;8.710;2023-02-12T00:30:21;7.20;97.10
10123;DHT22;5101;49.038;8.710;2023-02-12T00:32:46;7.20;97.10
10123;DHT22;5101;49.038;8.710;2023-02-12T00:35:12;7.10;97.20
10123;DHT22;5101;49.038;8.710;2023-02-12T00:37:38;7.10;97.20
10123;DHT22;5101;49.038;8.710;2023-02-12T00:40:04;7.20;97.20
10123;DHT22;5101;49.038;8.710;2023-02-12T00:42:30;7.10;97.20
10123;DHT22;5101;49.038;8.710;2023-02-12T00:44:55;7.10;97.40
10123;DHT22;5101;49.038;8.710;2023-02-12T00:47:20;7.10;97.40
10123;DHT22;5101;49.038;8.710;2023-02-12T00:49:46;7.10;97.50
10123;DHT22;5101;49.038;8.710;2023-02-12T00:52:11;7.10;97.50
10123;DHT22;5101;49.038;8.710;2023-02-12T00:54:37;7.20;97.60
10123;DHT22;5101;49.038;8.710;2023-02-12T00:57:02;7.20;97.60
10123;DHT22;5101;49.038;8.710;2023-02-12T00:59:28;7.20;97.60
10123;DHT22;5101;49.038;8.710;2023-02-12T01:01:55;7.20;97.60
10123;DHT22;5101;49.038;8.710;2023-02-12T01:04:21;7.30;97.70
10123;DHT22;5101;49.038;8.710;2023-02-12T01:06:46;7.00;97.80
10123;DHT22;5101;49.038;8.710;2023-02-12T01:09:12;7.10;97.90
10123;DHT22;5101;49.038;8.710;2023-02-12T01:11:38;7.10;98.00
10123;DHT22;5101;49.038;8.710;2023-02-12T01:14:04;7.10;97.90
10123;DHT22;5101;49.038;8.710;2023-02-12T01:16:31;7.30;98.10
10123;DHT22;5101;49.038;8.710;2023-02-12T01:18:58;7.20;98.00
10123;DHT22;5101;49.038;8.710;2023-02-12T01:21:29;7.10;97.90
10123;DHT22;5101;49.038;8.710;2023-02-12T01:23:55;7.20;98.00
10123;DHT22;5101;49.038;8.710;2023-02-12T01:26:21;7.20;98.00
10123;DHT22;5101;49.038;8.710;2023-02-12T01:28:49;7.10;98.10
10123;DHT22;5101;49.038;8.710;2023-02-12T01:31:18;7.10;98.10
10123;DHT22;5101;49.038;8.710;2023-02-12T01:33:47;7.10;98.10
10123;DHT22;5101;49.038;8.710;2023-02-12T01:36:13;7.10;98.30
10123;DHT22;5101;49.038;8.710;2023-02-12T01:38:38;7.00;98.30
10123;DHT22;5101;49.038;8.710;2023-02-12T01:41:16;7.10;98.40
10123;DHT22;5101;49.038;8.710;2023-02-12T01:43:43;7.10;98.40
10123;DHT22;5101;49.038;8.710;2023-02-12T01:46:12;7.20;98.50
10123;DHT22;5101;49.038;8.710;2023-02-12T01:48:41;7.10;98.50
10123;DHT22;5101;49.038;8.710;2023-02-12T01:51:10;7.00;98.50
10123;DHT22;5101;49.038;8.710;2023-02-12T01:53:41;7.00;98.60
10123;DHT22;5101;49.038;8.710;2023-02-12T01:56:08;7.00;98.60
10123;DHT22;5101;49.038;8.710;2023-02-12T01:58:37;7.10;98.70
10123;DHT22;5101;49.038;8.710;2023-02-12T02:01:06;7.00;98.70
10123;DHT22;5101;49.038;8.710;2023-02-12T02:03:33;7.10;99.00
10123;DHT22;5101;49.038;8.710;2023-02-12T02:06:07;7.00;98.80
10123;DHT22;5101;49.038;8.710;2023-02-12T02:08:35;7.00;99.00
10123;DHT22;5101;49.038;8.710;2023-02-12T02:11:01;7.00;99.00
10123;DHT22;5101;49.038;8.710;2023-02-12T02:13:46;7.00;99.00
10123;DHT22;5101;49.038;8.710;2023-02-12T02:16:34;7.10;98.90
10123;DHT22;5101;49.038;8.710;2023-02-12T02:22:06;6.90;99.00
10123;DHT22;5101;49.038;8.710;2023-02-12T02:28:00;6.90;99.20
10123;DHT22;5101;49.038;8.710;2023-02-12T02:33:24;6.90;99.10
10123;DHT22;5101;49.038;8.710;2023-02-12T02:38:37;7.00;99.30
10123;DHT22;5101;49.038;8.710;2023-02-12T02:41:10;6.90;99.20
10123;DHT22;5101;49.038;8.710;2023-02-12T02:43:48;6.90;99.20
10123;DHT22;5101;49.038;8.710;2023-02-12T02:46:30;6.90;99.40
10123;DHT22;5101;49.038;8.710;2023-02-12T02:49:02;6.90;99.40
10123;DHT22;5101;49.038;8.710;2023-02-12T02:51:32;6.90;99.40
10123;DHT22;5101;49.038;8.710;2023-02-12T02:54:20;7.10;99.40
10123;DHT22;5101;49.038;8.710;2023-02-12T02:56:50;7.00;99.50
10123;DHT22;5101;49.038;8.710;2023-02-12T02:59:27;7.00;99.40
10123;DHT22;5101;49.038;8.710;2023-02-12T03:02:03;7.00;99.40
10123;DHT22;5101;49.038;8.710;2023-02-12T03:04:40;7.10;99.50
10123;DHT22;5101;49.038;8.710;2023-02-12T03:07:15;6.90;99.30
10123;DHT22;5101;49.038;8.710;2023-02-12T03:09:45;6.90;99.30
10123;DHT22;5101;49.038;8.710;2023-02-12T03:12:19;6.90;99.30
10123;DHT22;5101;49.038;8.710;2023-02-12T03:15:05;7.00;99.30
10123;DHT22;5101;49.038;8.710;2023-02-12T03:17:39;7.00;99.30
10123;DHT22;5101;49.038;8.710;2023-02-12T03:20:21;7.10;99.30
10123;DHT22;5101;49.038;8.710;2023-02-12T03:22:52;7.00;99.30
10123;DHT22;5101;49.038;8.710;2023-02-12T03:25:29;7.00;99.30
10123;DHT22;5101;49.038;8.710;2023-02-12T03:28:06;7.00;99.40
10123;DHT22;5101;49.038;8.710;2023-02-12T03:30:58;7.00;99.50
10123;DHT22;5101;49.038;8.710;2023-02-12T03:33:43;6.90;99.70
10123;DHT22;5101;49.038;8.710;2023-02-12T03:36:45;6.90;99.90
10123;DHT22;5101;49.038;8.710;2023-02-12T03:42:14;6.80;99.90
10123;DHT22;5101;49.038;8.710;2023-02-12T03:52:50;6.80;99.90
10123;DHT22;5101;49.038;8.710;2023-02-12T03:55:17;6.90;99.90
10123;DHT22;5101;49.038;8.710;2023-02-12T03:57:45;6.90;99.90
10123;DHT22;5101;49.038;8.710;2023-02-12T04:00:17;6.90;99.90
10123;DHT22;5101;49.038;8.710;2023-02-12T04:02:43;6.80;99.90
10123;DHT22;5101;49.038;8.710;2023-02-12T04:05:35;6.90;99.90
10123;DHT22;5101;49.038;8.710;2023-02-12T04:08:03;6.90;99.90
10123;DHT22;5101;49.038;8.710;2023-02-12T04:13:51;6.90;99.90
10123;DHT22;5101;49.038;8.710;2023-02-12T04:16:32;6.90;99.90
10123;DHT22;5101;49.038;8.710;2023-02-12T04:19:00;7.10;99.90
10123;DHT22;5101;49.038;8.710;2023-02-12T04:24:41;6.90;99.90
10123;DHT22;5101;49.038;8.710;2023-02-12T04:27:27;6.90;99.90
10123;DHT22;5101;49.038;8.710;2023-02-12T04:30:20;6.90;99.90
10123;DHT22;5101;49.038;8.710;2023-02-12T04:32:51;6.90;99.90
10123;DHT22;5101;49.038;8.710;2023-02-12T04:37:49;6.90;99.90
10123;DHT22;5101;49.038;8.710;2023-02-12T04:40:17;6.90;99.90
10123;DHT22;5101;49.038;8.710;2023-02-12T04:42:45;6.90;99.90
10123;DHT22;5101;49.038;8.710;2023-02-12T04:45:14;7.00;99.90
10123;DHT22;5101;49.038;8.710;2023-02-12T04:47:40;6.90;99.90
10123;DHT22;5101;49.038;8.710;2023-02-12T04:50:06;6.90;99.90
10123;DHT22;5101;49.038;8.710;2023-02-12T04:52:32;7.00;99.90
10123;DHT22;5101;49.038;8.710;2023-02-12T04:54:57;7.00;99.90
10123;DHT22;5101;49.038;8.710;2023-02-12T04:57:23;7.00;99.90
10123;DHT22;5101;49.038;8.710;2023-02-12T04:59:48;7.00;99.90
10123;DHT22;5101;49.038;8.710;2023-02-12T05:02:14;6.90;99.90
10123;DHT22;5101;49.038;8.710;2023-02-12T05:04:39;6.90;99.90
10123;DHT22;5101;49.038;8.710;2023-02-12T05:07:05;7.00;99.90
10123;DHT22;5101;49.038;8.710;2023-02-12T05:09:30;6.90;99.90
10123;DHT22;5101;49.038;8.710;2023-02-12T05:11:56;7.00;99.90
10123;DHT22;5101;49.038;8.710;2023-02-12T05:14:24;7.00;99.90
10123;DHT22;5101;49.038;8.710;2023-02-12T05:16:49;6.90;99.90
10123;DHT22;5101;49.038;8.710;2023-02-12T05:19:15;6.90;99.90
10123;DHT22;5101;49.038;8.710;2023-02-12T05:21:40;6.90;99.90
10123;DHT22;5101;49.038;8.710;2023-02-12T05:24:06;6.90;99.90
10123;DHT22;5101;49.038;8.710;2023-02-12T05:26:33;6.90;99.90
10123;DHT22;5101;49.038;8.710;2023-02-12T05:28:58;6.90;99.90
10123;DHT22;5101;49.038;8.710;2023-02-12T05:31:24;7.00;99.90
10123;DHT22;5101;49.038;8.710;2023-02-12T05:33:50;6.90;99.90
10123;DHT22;5101;49.038;8.710;2023-02-12T05:36:20;6.90;99.90
10123;DHT22;5101;49.038;8.710;2023-02-12T05:38:47;6.90;99.90
10123;DHT22;5101;49.038;8.710;2023-02-12T05:41:15;6.90;99.90
10123;DHT22;5101;49.038;8.710;2023-02-12T05:43:41;6.90;99.90
10123;DHT22;5101;49.038;8.710;2023-02-12T05:46:07;6.90;99.90
10123;DHT22;5101;49.038;8.710;2023-02-12T05:48:34;6.90;99.90
10123;DHT22;5101;49.038;8.710;2023-02-12T05:51:07;6.80;99.90
10123;DHT22;5101;49.038;8.710;2023-02-12T05:53:33;6.80;99.90
10123;DHT22;5101;49.038;8.710;2023-02-12T05:56:18;6.90;99.90
10123;DHT22;5101;49.038;8.710;2023-02-12T05:58:55;6.90;99.90
10123;DHT22;5101;49.038;8.710;2023-02-12T06:01:27;6.90;99.90
10123;DHT22;5101;49.038;8.710;2023-02-12T06:03:53;6.90;99.90
10123;DHT22;5101;49.038;8.710;2023-02-12T06:06:19;6.80;99.90
10123;DHT22;5101;49.038;8.710;2023-02-12T06:08:48;6.80;99.90
10123;DHT22;5101;49.038;8.710;2023-02-12T06:11:14;6.80;99.90
10123;DHT22;5101;49.038;8.710;2023-02-12T06:13:40;6.80;99.90
10123;DHT22;5101;49.038;8.710;2023-02-12T06:16:06;6.70;99.90
10123;DHT22;5101;49.038;8.710;2023-02-12T06:18:39;6.70;99.90
10123;DHT22;5101;49.038;8.710;2023-02-12T06:21:05;6.70;99.90
10123;DHT22;5101;49.038;8.710;2023-02-12T06:23:30;6.70;99.90
10123;DHT22;5101;49.038;8.710;2023-02-12T06:25:56;6.70;99.90
10123;DHT22;5101;49.038;8.710;2023-02-12T06:28:21;6.70;99.90
10123;DHT22;5101;49.038;8.710;2023-02-12T06:30:47;6.90;99.90
10123;DHT22;5101;49.038;8.710;2023-02-12T06:33:12;6.70;99.90
10123;DHT22;5101;49.038;8.710;2023-02-12T06:35:38;6.70;99.90
10123;DHT22;5101;49.038;8.710;2023-02-12T06:38:04;6.70;99.90
10123;DHT22;5101;49.038;8.710;2023-02-12T06:40:29;6.80;99.90
10123;DHT22;5101;49.038;8.710;2023-02-12T06:42:55;6.80;99.90
10123;DHT22;5101;49.038;8.710;2023-02-12T06:45:21;6.70;99.90
10123;DHT22;5101;49.038;8.710;2023-02-12T06:47:46;6.90;99.90
10123;DHT22;5101;49.038;8.710;2023-02-12T06:50:12;6.80;99.90
10123;DHT22;5101;49.038;8.710;2023-02-12T06:52:37;6.70;99.90
10123;DHT22;5101;49.038;8.710;2023-02-12T06:55:03;6.70;99.90
10123;DHT22;5101;49.038;8.710;2023-02-12T06:57:29;6.70;99.90
10123;DHT22;5101;49.038;8.710;2023-02-12T06:59:55;6.70;99.90
10123;DHT22;5101;49.038;8.710;2023-02-12T07:02:20;6.70;99.90
10123;DHT22;5101;49.038;8.710;2023-02-12T07:04:46;6.70;99.90
10123;DHT22;5101;49.038;8.710;2023-02-12T07:07:11;6.70;99.90
10123;DHT22;5101;49.038;8.710;2023-02-12T07:09:37;6.70;99.90
10123;DHT22;5101;49.038;8.710;2023-02-12T07:12:03;6.70;99.90
10123;DHT22;5101;49.038;8.710;2023-02-12T07:14:28;6.80;99.90
10123;DHT22;5101;49.038;8.710;2023-02-12T07:16:54;6.70;99.90
10123;DHT22;5101;49.038;8.710;2023-02-12T07:19:20;6.70;99.90
10123;DHT22;5101;49.038;8.710;2023-02-12T07:21:46;6.70;99.90
10123;DHT22;5101;49.038;8.710;2023-02-12T07:24:12;6.70;99.90
10123;DHT22;5101;49.038;8.710;2023-02-12T07:26:39;6.70;99.90
10123;DHT22;5101;49.038;8.710;2023-02-12T07:29:05;6.70;99.90
10123;DHT22;5101;49.038;8.710;2023-02-12T07:31:31;6.70;99.90
10123;DHT22;5101;49.038;8.710;2023-02-12T07:33:58;6.90;99.90
10123;DHT22;5101;49.038;8.710;2023-02-12T07:36:26;6.70;99.90
10123;DHT22;5101;49.038;8.710;2023-02-12T07:38:53;6.80;99.90
10123;DHT22;5101;49.038;8.710;2023-02-12T07:41:30;6.80;99.90
10123;DHT22;5101;49.038;8.710;2023-02-12T07:43:59;6.80;99.90
10123;DHT22;5101;49.038;8.710;2023-02-12T07:46:27;6.80;99.90
10123;DHT22;5101;49.038;8.710;2023-02-12T07:48:57;6.80;99.90
10123;DHT22;5101;49.038;8.710;2023-02-12T07:51:23;7.10;99.90
10123;DHT22;5101;49.038;8.710;2023-02-12T07:53:49;6.90;99.90
10123;DHT22;5101;49.038;8.710;2023-02-12T07:56:27;7.00;99.90
10123;DHT22;5101;49.038;8.710;2023-02-12T07:58:55;6.90;99.90
10123;DHT22;5101;49.038;8.710;2023-02-12T08:01:26;6.90;99.90
10123;DHT22;5101;49.038;8.710;2023-02-12T08:03:52;6.90;99.90
10123;DHT22;5101;49.038;8.710;2023-02-12T08:06:21;7.00;99.90
10123;DHT22;5101;49.038;8.710;2023-02-12T08:08:50;7.00;99.90
10123;DHT22;5101;49.038;8.710;2023-02-12T08:11:16;7.00;99.90
10123;DHT22;5101;49.038;8.710;2023-02-12T08:13:43;7.10;99.90
10123;DHT22;5101;49.038;8.710;2023-02-12T08:16:15;7.10;99.90
10123;DHT22;5101;49.038;8.710;2023-02-12T08:18:41;7.10;99.90
10123;DHT22;5101;49.038;8.710;2023-02-12T08:21:12;7.20;99.90
10123;DHT22;5101;49.038;8.710;2023-02-12T08:23:39;7.30;99.90
10123;DHT22;5101;49.038;8.710;2023-02-12T08:26:13;7.30;99.90
10123;DHT22;5101;49.038;8.710;2023-02-12T08:28:45;7.40;99.90
10123;DHT22;5101;49.038;8.710;2023-02-12T08:31:17;7.50;99.90
10123;DHT22;5101;49.038;8.710;2023-02-12T08:33:44;7.50;99.90
10123;DHT22;5101;49.038;8.710;2023-02-12T08:36:12;7.60;99.90
10123;DHT22;5101;49.038;8.710;2023-02-12T08:38:39;7.70;99.90
10123;DHT22;5101;49.038;8.710;2023-02-12T08:41:06;7.70;99.90
10123;DHT22;5101;49.038;8.710;2023-02-12T08:43:33;7.80;99.90
10123;DHT22;5101;49.038;8.710;2023-02-12T08:46:07;7.80;99.90
10123;DHT22;5101;49.038;8.710;2023-02-12T08:48:34;7.80;99.90
10123;DHT22;5101;49.038;8.710;2023-02-12T08:53:40;7.90;99.90
10123;DHT22;5101;49.038;8.710;2023-02-12T08:56:07;8.00;99.90
10123;DHT22;5101;49.038;8.710;2023-02-12T08:58:34;8.10;99.90
10123;DHT22;5101;49.038;8.710;2023-02-12T09:01:00;8.20;99.90
10123;DHT22;5101;49.038;8.710;2023-02-12T09:03:26;8.20;99.90
10123;DHT22;5101;49.038;8.710;2023-02-12T09:05:51;8.30;99.90
10123;DHT22;5101;49.038;8.710;2023-02-12T09:08:17;8.40;99.90
10123;DHT22;5101;49.038;8.710;2023-02-12T09:10:43;8.40;99.90
10123;DHT22;5101;49.038;8.710;2023-02-12T09:13:10;8.40;99.80
10123;DHT22;5101;49.038;8.710;2023-02-12T09:15:41;8.50;99.80
10123;DHT22;5101;49.038;8.710;2023-02-12T09:18:08;8.60;99.70
10123;DHT22;5101;49.038;8.710;2023-02-12T09:20:37;8.60;99.50
10123;DHT22;5101;49.038;8.710;2023-02-12T09:23:04;8.70;99.40
10123;DHT22;5101;49.038;8.710;2023-02-12T09:25:30;8.70;99.30
10123;DHT22;5101;49.038;8.710;2023-02-12T09:27:59;8.80;99.30
10123;DHT22;5101;49.038;8.710;2023-02-12T09:30:24;8.80;99.20
10123;DHT22;5101;49.038;8.710;2023-02-12T09:32:50;8.80;99.10
10123;DHT22;5101;49.038;8.710;2023-02-12T09:35:15;8.80;99.10
10123;DHT22;5101;49.038;8.710;2023-02-12T09:37:42;8.80;99.00
10123;DHT22;5101;49.038;8.710;2023-02-12T09:40:19;8.90;99.00
10123;DHT22;5101;49.038;8.710;2023-02-12T09:43:07;8.90;99.00
10123;DHT22;5101;49.038;8.710;2023-02-12T09:45:45;9.00;98.90
10123;DHT22;5101;49.038;8.710;2023-02-12T09:51:14;9.00;98.60
10123;DHT22;5101;49.038;8.710;2023-02-12T09:53:42;9.00;98.50
10123;DHT22;5101;49.038;8.710;2023-02-12T09:56:15;9.00;98.50
10123;DHT22;5101;49.038;8.710;2023-02-12T09:58:52;8.90;98.40
10123;DHT22;5101;49.038;8.710;2023-02-12T10:01:19;8.90;98.40
10123;DHT22;5101;49.038;8.710;2023-02-12T10:03:50;8.90;98.20
10123;DHT22;5101;49.038;8.710;2023-02-12T10:06:20;8.90;98.10
10123;DHT22;5101;49.038;8.710;2023-02-12T10:08:57;8.80;98.00
10123;DHT22;5101;49.038;8.710;2023-02-12T10:19:44;9.00;97.90
10123;DHT22;5101;49.038;8.710;2023-02-12T10:27:40;9.20;97.80
10123;DHT22;5101;49.038;8.710;2023-02-12T10:33:38;9.30;97.70
10123;DHT22;5101;49.038;8.710;2023-02-12T10:38:46;9.20;97.60
10123;DHT22;5101;49.038;8.710;2023-02-12T10:41:15;9.20;97.50
10123;DHT22;5101;49.038;8.710;2023-02-12T10:43:41;9.30;97.40
10123;DHT22;5101;49.038;8.710;2023-02-12T10:46:13;9.20;97.30
10123;DHT22;5101;49.038;8.710;2023-02-12T10:48:39;9.20;97.30
10123;DHT22;5101;49.038;8.710;2023-02-12T10:53:43;9.40;97.20
10123;DHT22;5101;49.038;8.710;2023-02-12T10:56:17;9.50;97.20
10123;DHT22;5101;49.038;8.710;2023-02-12T11:01:37;9.60;97.00
10123;DHT22;5101;49.038;8.710;2023-02-12T11:07:00;9.70;96.90
10123;DHT22;5101;49.038;8.710;2023-02-12T11:09:33;9.60;96.90
10123;DHT22;5101;49.038;8.710;2023-02-12T11:12:00;9.70;96.90
10123;DHT22;5101;49.038;8.710;2023-02-12T11:14:27;9.70;96.80
10123;DHT22;5101;49.038;8.710;2023-02-12T11:16:56;9.80;96.80
10123;DHT22;5101;49.038;8.710;2023-02-12T11:19:24;9.90;96.70
10123;DHT22;5101;49.038;8.710;2023-02-12T11:21:50;9.90;96.60
10123;DHT22;5101;49.038;8.710;2023-02-12T11:24:32;9.90;96.60
10123;DHT22;5101;49.038;8.710;2023-02-12T11:29:39;10.10;95.90
10123;DHT22;5101;49.038;8.710;2023-02-12T11:32:07;10.10;95.70
10123;DHT22;5101;49.038;8.710;2023-02-12T11:34:34;10.10;95.50
10123;DHT22;5101;49.038;8.710;2023-02-12T11:37:01;10.10;95.50
10123;DHT22;5101;49.038;8.710;2023-02-12T11:39:39;10.20;95.40
10123;DHT22;5101;49.038;8.710;2023-02-12T11:42:14;10.20;95.40
10123;DHT22;5101;49.038;8.710;2023-02-12T11:44:54;10.30;95.40
10123;DHT22;5101;49.038;8.710;2023-02-12T11:47:23;10.30;95.20
10123;DHT22;5101;49.038;8.710;2023-02-12T11:52:21;10.50;95.20
10123;DHT22;5101;49.038;8.710;2023-02-12T11:54:48;10.50;95.20
10123;DHT22;5101;49.038;8.710;2023-02-12T11:57:38;10.60;95.00
10123;DHT22;5101;49.038;8.710;2023-02-12T12:00:36;10.70;94.80
10123;DHT22;5101;49.038;8.710;2023-02-12T12:03:20;10.80;94.50
10123;DHT22;5101;49.038;8.710;2023-02-12T12:05:53;10.80;94.20
10123;DHT22;5101;49.038;8.710;2023-02-12T12:08:38;10.90;94.10
10123;DHT22;5101;49.038;8.710;2023-02-12T12:11:18;11.00;94.00
10123;DHT22;5101;49.038;8.710;2023-02-12T12:13:56;11.00;93.80
10123;DHT22;5101;49.038;8.710;2023-02-12T12:16:52;11.10;93.60
10123;DHT22;5101;49.038;8.710;2023-02-12T12:19:46;11.20;93.40
10123;DHT22;5101;49.038;8.710;2023-02-12T12:25:24;11.30;93.10
10123;DHT22;5101;49.038;8.710;2023-02-12T12:28:13;11.40;92.90
10123;DHT22;5101;49.038;8.710;2023-02-12T12:33:47;11.40;92.70
10123;DHT22;5101;49.038;8.710;2023-02-12T12:38:57;11.50;92.30
10123;DHT22;5101;49.038;8.710;2023-02-12T12:41:50;11.60;92.10
10123;DHT22;5101;49.038;8.710;2023-02-12T12:44:44;11.80;92.00
10123;DHT22;5101;49.038;8.710;2023-02-12T12:47:39;11.80;91.70
10123;DHT22;5101;49.038;8.710;2023-02-12T12:56:00;11.80;91.20
10123;DHT22;5101;49.038;8.710;2023-02-12T12:58:45;11.80;91.10
10123;DHT22;5101;49.038;8.710;2023-02-12T13:04:18;11.70;91.10
10123;DHT22;5101;49.038;8.710;2023-02-12T13:06:55;11.80;91.10
10123;DHT22;5101;49.038;8.710;2023-02-12T13:09:45;11.80;91.10
10123;DHT22;5101;49.038;8.710;2023-02-12T13:17:40;12.00;91.20
10123;DHT22;5101;49.038;8.710;2023-02-12T13:20:21;12.10;91.00
10123;DHT22;5101;49.038;8.710;2023-02-12T13:23:02;12.20;90.90
10123;DHT22;5101;49.038;8.710;2023-02-12T13:25:35;12.30;90.70
10123;DHT22;5101;49.038;8.710;2023-02-12T13:28:03;12.30;90.40
10123;DHT22;5101;49.038;8.710;2023-02-12T13:30:37;12.30;90.30
10123;DHT22;5101;49.038;8.710;2023-02-12T13:35:30;12.40;89.70
10123;DHT22;5101;49.038;8.710;2023-02-12T13:37:58;12.40;89.60
10123;DHT22;5101;49.038;8.710;2023-02-12T13:40:26;12.50;89.50
10123;DHT22;5101;49.038;8.710;2023-02-12T13:54:05;12.60;89.30
10123;DHT22;5101;49.038;8.710;2023-02-12T13:56:54;12.60;89.30
10123;DHT22;5101;49.038;8.710;2023-02-12T14:06:54;12.80;87.90
10123;DHT22;5101;49.038;8.710;2023-02-12T14:09:31;12.80;87.80
10123;DHT22;5101;49.038;8.710;2023-02-12T14:12:00;12.80;87.70
10123;DHT22;5101;49.038;8.710;2023-02-12T14:15:05;12.70;87.70
10123;DHT22;5101;49.038;8.710;2023-02-12T14:27:52;12.80;88.00
10123;DHT22;5101;49.038;8.710;2023-02-12T14:30:33;12.80;88.00
10123;DHT22;5101;49.038;8.710;2023-02-12T14:35:34;12.80;87.90
10123;DHT22;5101;49.038;8.710;2023-02-12T14:46:47;12.70;87.90
10123;DHT22;5101;49.038;8.710;2023-02-12T14:49:32;12.70;87.90
10123;DHT22;5101;49.038;8.710;2023-02-12T14:52:02;12.70;87.90
10123;DHT22;5101;49.038;8.710;2023-02-12T14:54:34;12.60;87.80
10123;DHT22;5101;49.038;8.710;2023-02-12T14:57:06;12.60;87.70
10123;DHT22;5101;49.038;8.710;2023-02-12T14:59:37;12.50;87.60
10123;DHT22;5101;49.038;8.710;2023-02-12T15:02:05;12.50;87.60
10123;DHT22;5101;49.038;8.710;2023-02-12T15:04:35;12.40;87.60
10123;DHT22;5101;49.038;8.710;2023-02-12T15:07:11;12.40;87.60
10123;DHT22;5101;49.038;8.710;2023-02-12T15:09:43;12.40;87.60
10123;DHT22;5101;49.038;8.710;2023-02-12T15:12:16;12.30;87.50
10123;DHT22;5101;49.038;8.710;2023-02-12T15:14:49;12.30;87.50
10123;DHT22;5101;49.038;8.710;2023-02-12T15:17:21;12.20;87.40
10123;DHT22;5101;49.038;8.710;2023-02-12T15:19:59;12.20;87.40
10123;DHT22;5101;49.038;8.710;2023-02-12T15:22:38;12.30;87.50
10123;DHT22;5101;49.038;8.710;2023-02-12T15:25:33;12.30;87.50
10123;DHT22;5101;49.038;8.710;2023-02-12T15:28:02;12.30;87.50
10123;DHT22;5101;49.038;8.710;2023-02-12T15:30:31;12.20;87.50
10123;DHT22;5101;49.038;8.710;2023-02-12T15:33:01;12.10;87.50
10123;DHT22;5101;49.038;8.710;2023-02-12T15:35:32;12.10;87.80
10123;DHT22;5101;49.038;8.710;2023-02-12T15:37:59;12.00;88.00
10123;DHT22;5101;49.038;8.710;2023-02-12T15:40:26;12.00;88.10
10123;DHT22;5101;49.038;8.710;2023-02-12T15:42:55;11.90;88.20
10123;DHT22;5101;49.038;8.710;2023-02-12T15:45:23;11.90;88.50
10123;DHT22;5101;49.038;8.710;2023-02-12T15:50:33;11.90;88.90
10123;DHT22;5101;49.038;8.710;2023-02-12T15:53:00;11.90;89.00
10123;DHT22;5101;49.038;8.710;2023-02-12T15:55:28;11.90;89.10
10123;DHT22;5101;49.038;8.710;2023-02-12T15:57:59;11.80;89.20
10123;DHT22;5101;49.038;8.710;2023-02-12T16:00:42;11.80;89.30
10123;DHT22;5101;49.038;8.710;2023-02-12T16:03:25;11.80;89.40
10123;DHT22;5101;49.038;8.710;2023-02-12T16:05:52;11.80;89.50
10123;DHT22;5101;49.038;8.710;2023-02-12T16:08:21;11.70;89.60
10123;DHT22;5101;49.038;8.710;2023-02-12T16:10:48;11.70;89.60
10123;DHT22;5101;49.038;8.710;2023-02-12T16:13:20;11.70;89.70
10123;DHT22;5101;49.038;8.710;2023-02-12T16:18:39;11.70;89.80
10123;DHT22;5101;49.038;8.710;2023-02-12T16:23:40;11.50;89.90
10123;DHT22;5101;49.038;8.710;2023-02-12T16:26:06;11.60;90.00
10123;DHT22;5101;49.038;8.710;2023-02-12T16:28:32;11.50;89.90
10123;DHT22;5101;49.038;8.710;2023-02-12T16:31:09;11.50;90.20
10123;DHT22;5101;49.038;8.710;2023-02-12T16:38:47;11.30;90.20
10123;DHT22;5101;49.038;8.710;2023-02-12T16:46:49;11.10;90.30
10123;DHT22;5101;49.038;8.710;2023-02-12T16:49:17;11.10;90.30
10123;DHT22;5101;49.038;8.710;2023-02-12T16:51:44;11.10;90.20
10123;DHT22;5101;49.038;8.710;2023-02-12T16:54:32;11.10;90.20
10123;DHT22;5101;49.038;8.710;2023-02-12T16:56:59;11.10;90.10
10123;DHT22;5101;49.038;8.710;2023-02-12T16:59:24;11.00;90.10
10123;DHT22;5101;49.038;8.710;2023-02-12T17:01:59;10.90;90.10
10123;DHT22;5101;49.038;8.710;2023-02-12T17:04:25;10.90;90.20
10123;DHT22;5101;49.038;8.710;2023-02-12T17:06:51;10.80;90.20
10123;DHT22;5101;49.038;8.710;2023-02-12T17:09:16;10.80;90.30
10123;DHT22;5101;49.038;8.710;2023-02-12T17:11:42;10.70;90.50
10123;DHT22;5101;49.038;8.710;2023-02-12T17:14:15;10.50;90.60
10123;DHT22;5101;49.038;8.710;2023-02-12T17:16:41;10.40;91.10
10123;DHT22;5101;49.038;8.710;2023-02-12T17:19:07;10.30;91.30
10123;DHT22;5101;49.038;8.710;2023-02-12T17:21:35;10.20;91.50
10123;DHT22;5101;49.038;8.710;2023-02-12T17:24:06;10.10;92.10
10123;DHT22;5101;49.038;8.710;2023-02-12T17:26:32;9.90;92.50
10123;DHT22;5101;49.038;8.710;2023-02-12T17:28:57;9.80;92.70
10123;DHT22;5101;49.038;8.710;2023-02-12T17:31:30;9.80;92.90
10123;DHT22;5101;49.038;8.710;2023-02-12T17:33:56;9.70;93.10
10123;DHT22;5101;49.038;8.710;2023-02-12T17:36:21;9.70;93.20
10123;DHT22;5101;49.038;8.710;2023-02-12T17:38:48;9.70;93.10
10123;DHT22;5101;49.038;8.710;2023-02-12T17:41:14;9.60;93.00
10123;DHT22;5101;49.038;8.710;2023-02-12T17:43:40;9.60;93.00
10123;DHT22;5101;49.038;8.710;2023-02-12T17:46:20;9.50;93.10
10123;DHT22;5101;49.038;8.710;2023-02-12T17:48:46;9.30;93.60
10123;DHT22;5101;49.038;8.710;2023-02-12T17:51:12;9.20;93.70
10123;DHT22;5101;49.038;8.710;2023-02-12T17:53:40;9.20;93.80
10123;DHT22;5101;49.038;8.710;2023-02-12T17:56:15;9.00;94.00
10123;DHT22;5101;49.038;8.710;2023-02-12T17:58:42;9.00;94.10
10123;DHT22;5101;49.038;8.710;2023-02-12T18:01:10;9.00;94.00
10123;DHT22;5101;49.038;8.710;2023-02-12T18:03:36;8.90;94.10
10123;DHT22;5101;49.038;8.710;2023-02-12T18:06:03;9.00;94.20
10123;DHT22;5101;49.038;8.710;2023-02-12T18:08:29;8.80;94.10
10123;DHT22;5101;49.038;8.710;2023-02-12T18:10:55;8.70;94.10
10123;DHT22;5101;49.038;8.710;2023-02-12T18:13:20;8.70;94.20
10123;DHT22;5101;49.038;8.710;2023-02-12T18:15:46;8.70;94.30
10123;DHT22;5101;49.038;8.710;2023-02-12T18:18:12;8.60;94.20
10123;DHT22;5101;49.038;8.710;2023-02-12T18:20:40;8.60;94.20
10123;DHT22;5101;49.038;8.710;2023-02-12T18:23:06;8.50;94.20
10123;DHT22;5101;49.038;8.710;2023-02-12T18:25:33;8.50;94.20
10123;DHT22;5101;49.038;8.710;2023-02-12T18:27:59;8.40;94.30
10123;DHT22;5101;49.038;8.710;2023-02-12T18:30:26;8.40;94.30
10123;DHT22;5101;49.038;8.710;2023-02-12T18:32:51;8.30;94.30
10123;DHT22;5101;49.038;8.710;2023-02-12T18:35:17;8.30;94.30
10123;DHT22;5101;49.038;8.710;2023-02-12T18:37:43;8.20;94.40
10123;DHT22;5101;49.038;8.710;2023-02-12T18:40:10;8.10;94.50
10123;DHT22;5101;49.038;8.710;2023-02-12T18:42:35;8.10;94.70
10123;DHT22;5101;49.038;8.710;2023-02-12T18:45:01;8.00;94.70
10123;DHT22;5101;49.038;8.710;2023-02-12T18:47:26;8.00;94.70
10123;DHT22;5101;49.038;8.710;2023-02-12T18:49:52;7.90;94.80
10123;DHT22;5101;49.038;8.710;2023-02-12T18:52:17;7.80;94.90